Corpus Christi International Airport
KCRP : now visible

Airfield :











YOU CAN JOIN US ON...

 
LOGIN :

Register | Disclaimer

   EN    FR    IT 

 









Legend :    VFR   Marginal VFR   IFR   Intensive IFR   Very Intensive IFR
Visi :
Ceiling :
>= 8 km
>= 3000ft
5 to 8 km
1000 to 3000 ft
1500m to 5 km
500 to 1000 ft
800 to 1500m
200 to 500 ft
< 800m
< 200 ft
Symbols :   Thunderstorms  Fog  Heavy snow  Heavy precipitations  Wind > 20 kt






- Airport Elevation : 44 ft
- IATA code : CRP


KCRP - Corpus Christi International

CURRENT METAR :
  • 201551Z 13007KT 10SM FEW015 SCT029 BKN034 29/22 A2999 RMK AO2 SLP153 FU FEW015 T02940217

EXPIRED METARs :
  • 201451Z 15010KT 10SM SCT020 SCT025 28/23 A2999 RMK AO2 SLP153 T02830228 53013
  • 201351Z 15004KT 10SM FEW011 FEW016 FEW025 26/23 A2997 RMK AO2 SLP148 FU FEW011 T02560228

TAF KCRP
Valid from the 20 at 12:00 until the 21 at 12:00 UTC


201120Z 2012/2112 13010KT P6SM SCT012
FM202000 12015G20KT P6SM SCT035
FM210100 11009KT P6SM SCT050
KZHU FIR / North America



MET'MAP, your aeronautical weather chart ! - Copyright ORBIFLY December 2007 - Disclaimer

ORBIFLY MET'MAP TEAM :

Programming & Development : Alexandra Zaïnal
Concept & original design : Baudouin d'Aumeries
Assistance for programming : Marc-Olivier Méhu
Technical & hardware support : Manuel Goepfert

Contact : metmap@orbifly.com




SOURCES & CREDITS :

   NOAA       Earth
Advisory